Time;durP1;ratioP1;P1;durP2;ratioP2;P2;SDS_P1;SDS_P2;PMS_P1;PMS_P2;Temp;Humidity;BMP_temperature;BMP_pressure;BME280_temperature;BME280_humidity;BME280_pressure;Samples;Min_cycle;Max_cycle;Signal;HPM_P1;HPM_P2
2022/08/19 00:00:38;;;;;;;19.00;17.20;;;20.50;99.90;;;;;;5071613;28;20694;-74
2022/08/19 00:03:06;;;;;;;20.47;18.40;;;20.60;99.90;;;;;;5073367;28;20626;-75
2022/08/19 00:05:33;;;;;;;20.23;18.40;;;20.50;99.90;;;;;;5072933;28;20650;-74
2022/08/19 00:08:00;;;;;;;20.23;18.10;;;20.50;99.90;;;;;;5073455;28;20590;-75
2022/08/19 00:10:26;;;;;;;20.13;18.23;;;20.50;99.90;;;;;;5073400;28;20574;-75
2022/08/19 00:12:53;;;;;;;21.13;18.40;;;20.50;99.90;;;;;;5073352;28;20944;-74
2022/08/19 00:15:22;;;;;;;24.13;19.20;;;20.50;99.90;;;;;;5073588;28;20638;-74
2022/08/19 00:17:49;;;;;;;21.43;19.27;;;20.50;99.90;;;;;;5073578;28;20579;-74
2022/08/19 00:20:19;;;;;;;20.07;18.07;;;20.50;99.90;;;;;;5072459;28;20622;-75
2022/08/19 00:22:47;;;;;;;21.37;18.50;;;20.50;99.90;;;;;;5073266;28;20666;-74
2022/08/19 00:25:15;;;;;;;20.27;18.27;;;20.60;99.90;;;;;;5072256;28;21208;-74
2022/08/19 00:27:42;;;;;;;24.30;20.03;;;20.50;99.90;;;;;;5073607;28;21062;-74
2022/08/19 00:30:10;;;;;;;20.30;18.23;;;20.50;99.90;;;;;;5076198;28;20589;-74
2022/08/19 00:32:37;;;;;;;20.60;18.60;;;20.40;99.90;;;;;;5076792;28;21217;-74
2022/08/19 00:35:04;;;;;;;21.20;18.93;;;20.30;99.90;;;;;;5076517;28;20581;-74
2022/08/19 00:37:32;;;;;;;20.80;18.77;;;20.30;99.90;;;;;;5058563;28;21173;-74
2022/08/19 00:39:59;;;;;;;20.13;18.03;;;20.30;99.90;;;;;;5076556;28;21164;-74
2022/08/19 00:42:28;;;;;;;22.37;20.07;;;20.30;99.90;;;;;;5076389;28;20658;-75
2022/08/19 00:44:54;;;;;;;27.60;19.57;;;20.40;99.90;;;;;;5076598;28;20614;-74
2022/08/19 00:47:21;;;;;;;22.37;20.10;;;20.50;99.90;;;;;;5076424;28;20597;-75
2022/08/19 00:49:51;;;;;;;24.27;21.70;;;20.60;99.90;;;;;;5074421;28;20613;-74
2022/08/19 00:52:24;;;;;;;21.93;19.63;;;20.70;99.90;;;;;;5076600;28;20629;-74
2022/08/19 00:54:52;;;;;;;21.00;19.00;;;20.60;99.90;;;;;;5076178;28;20585;-74
2022/08/19 00:57:27;;;;;;;21.47;19.27;;;20.70;99.90;;;;;;5075836;28;20579;-75
2022/08/19 00:59:56;;;;;;;22.50;20.20;;;20.60;99.90;;;;;;5075772;28;20574;-75
2022/08/19 01:02:27;;;;;;;22.07;19.77;;;20.50;99.90;;;;;;5075229;28;20995;-75
2022/08/19 01:04:54;;;;;;;20.03;18.20;;;20.50;99.90;;;;;;5073763;28;20658;-76
2022/08/19 01:07:20;;;;;;;21.73;19.50;;;20.50;99.90;;;;;;5076020;28;20639;-76
2022/08/19 01:09:47;;;;;;;22.07;20.00;;;20.60;99.90;;;;;;5075882;28;20683;-74
2022/08/19 01:12:14;;;;;;;21.23;19.13;;;20.60;99.90;;;;;;5075614;28;20632;-73
2022/08/19 01:14:41;;;;;;;23.10;19.80;;;20.50;99.90;;;;;;5075534;28;20627;-74
2022/08/19 01:17:09;;;;;;;22.87;20.07;;;20.50;99.90;;;;;;5075609;28;20579;-74
2022/08/19 01:19:40;;;;;;;20.93;18.83;;;20.60;99.90;;;;;;5075880;28;20582;-75
2022/08/19 01:22:42;;;;;;;22.23;19.60;;;20.70;99.90;;;;;;5076275;28;20642;-74
2022/08/19 01:25:09;;;;;;;22.57;20.37;;;20.70;99.90;;;;;;5076497;28;20649;-74
2022/08/19 01:27:47;;;;;;;22.27;20.27;;;20.70;99.90;;;;;;5077121;28;20582;-74
2022/08/19 01:30:19;;;;;;;24.03;21.63;;;20.80;99.90;;;;;;5075666;28;21173;-74
2022/08/19 01:32:45;;;;;;;22.37;20.27;;;20.80;99.90;;;;;;5075769;28;20582;-74
2022/08/19 01:35:13;;;;;;;22.83;20.73;;;20.80;99.90;;;;;;5075929;28;20586;-73
2022/08/19 01:37:52;;;;;;;22.90;20.60;;;20.80;99.90;;;;;;5076327;28;20606;-74
2022/08/19 01:40:21;;;;;;;21.47;19.47;;;20.60;99.90;;;;;;5074950;28;21156;-74
2022/08/19 01:42:50;;;;;;;23.57;21.27;;;20.60;99.90;;;;;;5075330;28;20633;-74
2022/08/19 01:45:17;;;;;;;21.30;19.20;;;20.50;99.90;;;;;;5075359;28;20696;-74
2022/08/19 01:47:44;;;;;;;21.03;18.83;;;20.50;99.90;;;;;;5075498;28;20574;-73
2022/08/19 01:50:13;;;;;;;22.70;20.43;;;20.40;99.90;;;;;;5074902;28;21068;-74
2022/08/19 01:52:41;;;;;;;21.23;19.13;;;20.40;99.90;;;;;;5075045;28;20618;-74
2022/08/19 01:55:11;;;;;;;23.33;20.90;;;20.30;99.90;;;;;;5074845;28;20575;-73
2022/08/19 01:57:40;;;;;;;22.10;19.90;;;20.40;99.90;;;;;;5075054;28;20574;-74
2022/08/19 02:00:11;;;;;;;21.10;19.03;;;20.30;99.90;;;;;;5074681;28;20593;-74
2022/08/19 02:02:39;;;;;;;22.20;20.00;;;20.30;99.90;;;;;;5073742;28;20669;-74
2022/08/19 02:05:07;;;;;;;23.13;20.97;;;20.40;99.90;;;;;;5073857;28;21006;-73
2022/08/19 02:07:35;;;;;;;22.13;19.97;;;20.30;99.90;;;;;;5074405;28;20575;-73
2022/08/19 02:10:07;;;;;;;23.57;21.40;;;20.20;99.90;;;;;;5074565;28;20944;-74
2022/08/19 02:12:35;;;;;;;25.40;19.70;;;20.10;99.90;;;;;;5074656;28;20571;-73
2022/08/19 02:15:02;;;;;;;24.83;21.23;;;20.00;99.90;;;;;;5074378;28;20622;-73
2022/08/19 02:17:29;;;;;;;24.03;20.80;;;19.90;99.90;;;;;;5072867;28;21192;-74
2022/08/19 02:19:56;;;;;;;21.30;19.10;;;19.90;99.90;;;;;;5074270;28;20578;-73
2022/08/19 02:22:25;;;;;;;22.73;20.43;;;19.80;99.90;;;;;;5072584;28;20653;-73
2022/08/19 02:24:53;;;;;;;25.13;20.70;;;19.80;99.90;;;;;;5073719;28;21290;-73
2022/08/19 02:27:20;;;;;;;23.33;21.03;;;19.80;99.90;;;;;;5074307;28;20578;-73
2022/08/19 02:29:48;;;;;;;23.47;21.27;;;19.80;99.90;;;;;;5072677;28;20618;-73
2022/08/19 02:32:16;;;;;;;23.23;20.90;;;19.90;99.90;;;;;;5073629;28;20649;-73
2022/08/19 02:34:42;;;;;;;23.30;20.80;;;19.70;99.90;;;;;;5074279;28;20574;-73
2022/08/19 02:38:24;;;;;;;24.10;21.47;;;19.70;99.90;;;;;;5074053;28;20579;-74
2022/08/19 02:39:55;;;;;;;22.37;20.20;;;19.70;99.90;;;;;;5074309;28;20698;-73
2022/08/19 02:42:22;;;;;;;21.83;19.77;;;19.90;99.90;;;;;;5075982;28;21140;-74
2022/08/19 02:44:48;;;;;;;23.80;21.40;;;20.00;99.90;;;;;;5076640;28;20627;-74
2022/08/19 02:47:15;;;;;;;24.13;21.83;;;20.00;99.90;;;;;;5073565;28;20622;-74
2022/08/19 02:49:42;;;;;;;23.20;20.97;;;20.10;99.90;;;;;;5073954;28;20593;-74
2022/08/19 02:52:08;;;;;;;26.40;21.70;;;20.10;99.90;;;;;;5088238;28;20637;-74
2022/08/19 02:54:34;;;;;;;23.70;21.50;;;20.10;99.90;;;;;;5072017;28;20677;-74
2022/08/19 02:57:01;;;;;;;24.23;21.93;;;20.20;99.90;;;;;;5073750;28;20615;-74
2022/08/19 02:59:30;;;;;;;23.17;20.93;;;20.10;99.90;;;;;;5073905;28;20574;-74
2022/08/19 03:01:57;;;;;;;21.90;19.77;;;20.00;99.90;;;;;;5071785;28;20660;-74
2022/08/19 03:04:24;;;;;;;23.27;20.87;;;20.00;99.90;;;;;;5073172;28;20654;-75
2022/08/19 03:06:51;;;;;;;24.83;22.33;;;20.00;99.90;;;;;;5073469;28;21233;-74
2022/08/19 03:09:19;;;;;;;25.83;23.40;;;20.00;99.90;;;;;;5073393;28;21064;-74
2022/08/19 03:11:46;;;;;;;24.20;21.90;;;20.00;99.90;;;;;;5073233;28;20622;-74
2022/08/19 03:14:12;;;;;;;26.10;23.60;;;20.00;99.90;;;;;;5072121;28;20626;-74
2022/08/19 03:16:45;;;;;;;26.40;23.80;;;20.10;99.90;;;;;;5073441;28;20625;-74
2022/08/19 03:19:12;;;;;;;28.73;22.73;;;20.00;99.90;;;;;;5073517;28;20586;-74
2022/08/19 03:21:39;;;;;;;26.53;23.80;;;20.00;99.90;;;;;;5073516;28;20661;-74
2022/08/19 03:24:08;;;;;;;26.30;23.60;;;20.10;99.90;;;;;;5073001;28;20642;-74
2022/08/19 03:26:38;;;;;;;26.80;24.40;;;20.10;99.90;;;;;;5071865;28;21144;-74
2022/08/19 03:29:05;;;;;;;27.50;24.57;;;20.30;99.90;;;;;;5073232;28;20660;-73
2022/08/19 03:31:32;;;;;;;25.73;23.10;;;20.40;99.90;;;;;;5073386;28;20941;-74
2022/08/19 03:33:58;;;;;;;27.50;24.90;;;20.50;99.90;;;;;;5073334;28;20663;-74
2022/08/19 03:36:27;;;;;;;27.03;24.40;;;20.60;99.90;;;;;;5073066;28;20582;-74
2022/08/19 03:38:58;;;;;;;25.27;22.87;;;20.60;99.90;;;;;;5072846;28;20631;-74
2022/08/19 03:41:28;;;;;;;26.90;24.40;;;20.60;99.90;;;;;;5072954;28;20582;-74
2022/08/19 03:43:55;;;;;;;25.40;22.97;;;20.60;99.90;;;;;;5072898;28;20973;-74
2022/08/19 03:46:25;;;;;;;25.57;23.00;;;20.60;99.90;;;;;;5072882;28;20625;-73
2022/08/19 03:48:54;;;;;;;24.50;22.20;;;20.60;99.90;;;;;;5072852;28;20618;-74
2022/08/19 03:51:24;;;;;;;24.50;22.30;;;20.60;99.90;;;;;;5072828;28;21025;-74
2022/08/19 03:53:53;;;;;;;24.10;21.60;;;20.50;99.90;;;;;;5072747;28;20980;-74
2022/08/19 03:56:19;;;;;;;25.07;22.77;;;20.50;99.90;;;;;;5072683;28;20614;-73
2022/08/19 03:58:46;;;;;;;26.10;23.80;;;20.40;99.90;;;;;;5072754;28;21113;-73
2022/08/19 04:01:17;;;;;;;25.37;23.03;;;20.40;99.90;;;;;;5072838;28;20937;-74
2022/08/19 04:03:46;;;;;;;24.20;21.93;;;20.50;99.90;;;;;;5072983;28;20629;-74
2022/08/19 04:06:16;;;;;;;24.13;21.50;;;20.50;99.90;;;;;;5076608;28;20613;-75
2022/08/19 04:08:43;;;;;;;25.60;23.30;;;20.50;99.90;;;;;;5076539;28;20547;-74
2022/08/19 04:11:13;;;;;;;24.90;22.23;;;20.50;99.90;;;;;;5076885;28;20566;-74
2022/08/19 04:13:40;;;;;;;25.33;22.53;;;20.50;99.90;;;;;;5076718;28;20982;-74
2022/08/19 04:16:06;;;;;;;26.47;22.03;;;20.50;99.90;;;;;;5074929;28;20687;-74
2022/08/19 04:18:33;;;;;;;24.90;22.37;;;20.50;99.90;;;;;;5076459;28;20578;-74
2022/08/19 04:21:00;;;;;;;28.17;22.33;;;20.40;99.90;;;;;;5076232;28;21188;-74
2022/08/19 04:23:27;;;;;;;24.77;22.57;;;20.40;99.90;;;;;;5074831;28;20665;-74
2022/08/19 04:25:55;;;;;;;24.80;22.30;;;20.30;99.90;;;;;;5076081;28;21171;-75
2022/08/19 04:28:22;;;;;;;23.37;21.27;;;20.30;99.90;;;;;;5076134;28;20687;-75
2022/08/19 04:30:51;;;;;;;22.77;20.80;;;20.20;99.90;;;;;;5076639;28;20923;-75
2022/08/19 04:33:22;;;;;;;25.97;23.23;;;20.20;99.90;;;;;;5076574;28;20570;-75
2022/08/19 04:35:50;;;;;;;22.63;20.50;;;20.20;99.90;;;;;;5075993;28;20633;-74
2022/08/19 04:38:19;;;;;;;23.30;21.00;;;20.20;99.90;;;;;;5076247;28;20599;-74
2022/08/19 04:43:35;;;;;;;25.20;22.67;;;20.10;99.90;;;;;;5075605;28;20632;-74
2022/08/19 04:46:10;;;;;;;24.30;21.63;;;20.20;99.90;;;;;;5076255;28;20582;-75
2022/08/19 04:48:38;;;;;;;26.83;21.87;;;20.10;99.90;;;;;;5075794;28;20929;-74
2022/08/19 04:51:12;;;;;;;24.43;21.33;;;20.00;99.90;;;;;;5076255;28;20577;-74
2022/08/19 04:53:41;;;;;;;22.97;20.87;;;20.00;99.90;;;;;;5076075;28;20570;-74
2022/08/19 04:56:14;;;;;;;24.83;22.50;;;20.00;99.90;;;;;;5075623;28;20575;-74
2022/08/19 04:58:43;;;;;;;23.47;21.27;;;19.90;99.90;;;;;;5075535;28;20574;-74
2022/08/19 05:01:24;;;;;;;26.63;22.73;;;19.90;99.90;;;;;;5076072;28;20575;-74
2022/08/19 05:03:51;;;;;;;25.30;22.87;;;19.90;99.90;;;;;;5075430;28;20694;-74
2022/08/19 05:06:20;;;;;;;22.23;20.13;;;19.90;99.90;;;;;;5075919;28;21255;-74
2022/08/19 05:08:47;;;;;;;25.67;21.60;;;19.90;99.90;;;;;;5075304;28;20579;-74
2022/08/19 05:11:24;;;;;;;23.47;21.23;;;19.80;99.90;;;;;;5075771;28;20574;-76
2022/08/19 05:13:51;;;;;;;22.90;20.90;;;19.90;99.90;;;;;;5073785;28;20636;-74
2022/08/19 05:16:21;;;;;;;22.53;20.37;;;20.00;99.90;;;;;;5073212;28;20640;-74
2022/08/19 05:24:20;;;;;;;22.77;20.67;;;20.10;99.90;;;;;;5075518;28;20633;-74
2022/08/19 05:26:49;;;;;;;24.33;22.03;;;20.10;99.90;;;;;;5075167;28;20610;-74
2022/08/19 05:29:18;;;;;;;27.60;22.50;;;20.10;99.90;;;;;;5075442;28;20570;-74
2022/08/19 05:31:46;;;;;;;22.20;20.27;;;20.10;99.90;;;;;;5075722;28;21192;-74
2022/08/19 05:34:13;;;;;;;21.07;19.03;;;20.10;99.90;;;;;;5075272;28;20634;-74
2022/08/19 05:36:43;;;;;;;22.67;20.67;;;20.00;99.90;;;;;;5073892;28;20610;-74
2022/08/19 05:39:13;;;;;;;31.47;28.37;;;19.90;99.90;;;;;;5074792;28;20610;-73
2022/08/19 05:41:44;;;;;;;22.67;20.20;;;20.00;99.90;;;;;;5075136;28;20950;-74
2022/08/19 05:44:10;;;;;;;22.40;20.13;;;20.10;99.90;;;;;;5074670;28;20543;-74
2022/08/19 05:46:38;;;;;;;22.30;20.00;;;20.10;99.90;;;;;;5074245;28;21184;-73
2022/08/19 05:49:06;;;;;;;21.30;19.30;;;20.20;99.90;;;;;;5074221;28;20618;-74
2022/08/19 05:51:36;;;;;;;21.17;19.37;;;20.20;99.90;;;;;;5074410;28;21077;-74
2022/08/19 05:54:05;;;;;;;22.13;19.90;;;20.30;99.90;;;;;;5074196;28;20629;-74
2022/08/19 05:56:35;;;;;;;20.10;18.23;;;20.30;99.90;;;;;;5076128;28;20618;-74
2022/08/19 05:59:02;;;;;;;21.17;19.07;;;20.30;99.90;;;;;;5076130;28;21206;-75
2022/08/19 06:01:28;;;;;;;19.73;18.13;;;20.30;99.90;;;;;;5076421;28;20618;-75
2022/08/19 06:03:55;;;;;;;20.77;18.60;;;20.40;99.90;;;;;;5075283;28;20738;-74
2022/08/19 06:06:21;;;;;;;20.40;18.60;;;20.50;99.90;;;;;;5089721;28;20617;-74
2022/08/19 06:08:50;;;;;;;19.47;17.67;;;20.50;99.90;;;;;;5074382;28;20827;-74
2022/08/19 06:11:55;;;;;;;22.70;19.40;;;20.60;99.90;;;;;;5074481;28;20936;-75
2022/08/19 06:14:30;;;;;;;19.47;17.77;;;20.60;99.90;;;;;;5012335;28;21042;-75
2022/08/19 06:16:59;;;;;;;20.57;18.37;;;20.70;99.90;;;;;;5066621;28;21161;-75
2022/08/19 06:19:28;;;;;;;20.37;18.43;;;20.80;99.90;;;;;;5074630;28;20626;-74
2022/08/19 06:21:54;;;;;;;20.10;18.50;;;21.00;99.90;;;;;;5074651;28;20614;-74
2022/08/19 06:24:23;;;;;;;18.63;16.83;;;21.00;99.90;;;;;;5075206;28;21049;-74
2022/08/19 06:26:52;;;;;;;18.93;16.57;;;21.10;99.90;;;;;;5075299;28;20567;-75
2022/08/19 06:29:22;;;;;;;19.40;17.60;;;21.20;99.90;;;;;;5075693;28;20614;-75
2022/08/19 06:31:50;;;;;;;18.07;16.50;;;21.20;99.90;;;;;;5075501;28;20622;-76
2022/08/19 06:34:17;;;;;;;16.77;15.27;;;21.40;99.90;;;;;;5075066;28;20984;-81
2022/08/19 06:36:48;;;;;;;16.35;14.93;;;21.40;99.90;;;;;;5071320;28;21284;-71
2022/08/19 06:39:24;;;;;;;16.70;15.20;;;21.60;99.90;;;;;;5073403;28;20184;-71
2022/08/19 06:41:54;;;;;;;15.73;14.47;;;21.70;99.90;;;;;;5073562;28;20578;-71
2022/08/19 06:44:23;;;;;;;16.10;14.70;;;21.80;99.90;;;;;;5073294;28;20581;-71
2022/08/19 06:46:49;;;;;;;15.60;14.40;;;21.80;99.90;;;;;;5072891;28;20645;-71
2022/08/19 06:49:17;;;;;;;15.60;13.90;;;21.80;99.90;;;;;;5073578;28;20687;-70
2022/08/19 06:51:47;;;;;;;14.97;13.70;;;21.90;99.90;;;;;;5073326;28;20574;-70
2022/08/19 06:54:14;;;;;;;15.53;14.13;;;21.80;99.90;;;;;;5071450;28;20629;-70
2022/08/19 06:56:41;;;;;;;15.17;13.97;;;21.80;99.90;;;;;;5073168;28;20579;-70
2022/08/19 06:59:10;;;;;;;16.30;14.10;;;21.90;99.90;;;;;;5073192;28;20587;-70
2022/08/19 07:01:39;;;;;;;15.23;13.93;;;21.90;99.90;;;;;;5073219;28;20618;-70
2022/08/19 07:04:08;;;;;;;13.50;12.30;;;21.90;99.90;;;;;;5088167;28;20743;-70
2022/08/19 07:06:36;;;;;;;15.23;13.93;;;22.00;99.90;;;;;;5073002;28;20981;-70
2022/08/19 07:09:06;;;;;;;16.00;14.37;;;22.10;99.90;;;;;;5073293;28;20574;-70
2022/08/19 07:11:33;;;;;;;14.57;13.43;;;22.20;99.90;;;;;;5073332;28;20578;-70
2022/08/19 07:14:01;;;;;;;14.33;12.93;;;22.10;99.90;;;;;;5073288;28;20940;-70
2022/08/19 07:16:28;;;;;;;14.30;12.10;;;22.10;99.90;;;;;;5072884;28;20618;-70
2022/08/19 07:18:56;;;;;;;13.30;12.10;;;22.20;99.90;;;;;;5072984;28;20625;-70
2022/08/19 07:21:29;;;;;;;13.77;12.47;;;22.20;99.90;;;;;;5072768;28;20593;-70
2022/08/19 07:23:56;;;;;;;14.03;12.73;;;22.40;99.90;;;;;;5072694;28;20673;-70
2022/08/19 07:26:29;;;;;;;13.37;12.07;;;22.80;99.90;;;;;;5072822;28;20586;-70
2022/08/19 07:28:57;;;;;;;12.90;11.87;;;23.00;99.90;;;;;;5072875;28;21097;-70
2022/08/19 07:31:25;;;;;;;13.47;12.37;;;23.40;99.90;;;;;;5072539;28;20679;-70
2022/08/19 07:33:54;;;;;;;14.83;11.73;;;23.60;99.90;;;;;;5073065;28;20579;-70
2022/08/19 07:36:24;;;;;;;12.90;11.67;;;23.80;99.90;;;;;;5072770;28;20586;-70
2022/08/19 07:38:53;;;;;;;13.50;11.97;;;24.10;99.90;;;;;;5075556;28;20583;-70
2022/08/19 07:41:25;;;;;;;13.03;11.67;;;24.20;99.90;;;;;;5076913;28;20570;-70
2022/08/19 07:43:52;;;;;;;14.33;12.53;;;24.10;99.90;;;;;;5076810;28;20634;-70
2022/08/19 07:46:20;;;;;;;13.70;12.50;;;24.30;99.90;;;;;;5076764;28;20611;-70
2022/08/19 07:48:49;;;;;;;14.77;13.30;;;24.40;99.90;;;;;;5076798;28;20625;-70
2022/08/19 07:51:19;;;;;;;12.30;11.10;;;24.60;99.90;;;;;;5077100;28;20648;-70
2022/08/19 07:53:50;;;;;;;12.40;11.37;;;24.80;99.90;;;;;;5076916;28;20607;-70
2022/08/19 07:56:19;;;;;;;14.23;12.87;;;24.90;99.90;;;;;;5076185;28;20606;-70
2022/08/19 07:58:47;;;;;;;12.57;11.37;;;24.90;99.90;;;;;;5076358;28;20971;-70
2022/08/19 08:01:21;;;;;;;12.63;11.17;;;24.90;99.90;;;;;;5076693;28;20977;-70
2022/08/19 08:09:24;;;;;;;17.13;11.23;;;25.20;99.90;;;;;;5076373;28;20578;-70
2022/08/19 08:11:56;;;;;;;11.80;10.73;;;24.90;99.90;;;;;;5076554;28;20575;-70
2022/08/19 08:14:29;;;;;;;11.93;10.70;;;25.10;99.90;;;;;;5076055;28;20649;-70
2022/08/19 08:16:57;;;;;;;11.37;10.30;;;25.30;99.90;;;;;;5075896;28;21125;-70
2022/08/19 08:19:26;;;;;;;12.53;11.33;;;25.30;99.90;;;;;;5076009;28;20625;-70
2022/08/19 08:21:57;;;;;;;12.37;11.37;;;25.30;99.90;;;;;;5076405;28;20566;-70
2022/08/19 08:24:26;;;;;;;12.53;10.07;;;25.10;99.90;;;;;;5076164;28;20669;-70
2022/08/19 08:26:52;;;;;;;11.93;10.67;;;25.50;99.90;;;;;;5076493;28;20579;-71
2022/08/19 08:29:19;;;;;;;12.60;11.37;;;25.50;99.90;;;;;;5075895;28;20678;-70
2022/08/19 08:31:46;;;;;;;15.60;12.27;;;25.30;99.90;;;;;;5075777;28;20623;-71
2022/08/19 08:34:14;;;;;;;12.60;11.53;;;25.00;99.90;;;;;;5075832;28;20632;-71
2022/08/19 08:36:44;;;;;;;11.90;10.90;;;24.80;99.90;;;;;;5076128;28;20627;-70
2022/08/19 08:39:14;;;;;;;12.17;11.07;;;24.50;99.90;;;;;;5075726;28;20622;-70
2022/08/19 08:41:49;;;;;;;11.63;10.73;;;24.60;99.90;;;;;;5075635;28;20977;-71
2022/08/19 08:44:54;;;;;;;12.97;11.97;;;24.60;99.90;;;;;;5075746;28;20609;-71
2022/08/19 08:47:23;;;;;;;12.57;11.47;;;24.70;99.90;;;;;;5067160;28;20629;-71
2022/08/19 08:50:18;;;;;;;12.10;10.90;;;24.60;99.90;;;;;;5074737;28;20620;-71
2022/08/19 08:52:50;;;;;;;11.93;10.73;;;24.60;99.90;;;;;;5072328;28;20694;-71
2022/08/19 08:55:21;;;;;;;11.67;10.47;;;24.60;99.90;;;;;;5075817;28;20574;-71
2022/08/19 08:57:51;;;;;;;11.40;10.30;;;24.70;99.90;;;;;;5075543;28;20574;-71
2022/08/19 09:00:38;;;;;;;10.67;9.73;;;24.90;99.90;;;;;;5076004;28;20951;-71
2022/08/19 09:03:19;;;;;;;12.90;11.47;;;25.40;99.90;;;;;;5075665;28;20635;-71
2022/08/19 09:06:09;;;;;;;10.73;9.43;;;25.40;99.90;;;;;;5074986;28;20646;-71
2022/08/19 09:09:03;;;;;;;10.53;9.63;;;25.60;99.90;;;;;;5076003;28;20617;-71
2022/08/19 09:11:56;;;;;;;10.40;9.17;;;25.90;99.90;;;;;;5077850;28;20575;-71
2022/08/19 09:14:45;;;;;;;14.07;8.07;;;26.40;99.90;;;;;;5079150;28;20641;-71
2022/08/19 09:17:13;;;;;;;11.20;10.10;;;26.90;99.90;;;;;;5079063;28;20621;-71
2022/08/19 09:19:56;;;;;;;11.43;10.23;;;26.80;99.90;;;;;;5079617;28;20669;-71
2022/08/19 09:22:22;;;;;;;10.93;9.27;;;26.60;99.90;;;;;;5078688;28;20637;-71
2022/08/19 09:24:51;;;;;;;10.03;9.30;;;26.80;99.90;;;;;;5080237;28;20759;-71
2022/08/19 09:27:20;;;;;;;9.50;8.70;;;26.90;99.90;;;;;;5078881;28;20629;-71
2022/08/19 09:29:48;;;;;;;10.70;9.60;;;27.20;99.90;;;;;;5079315;28;20618;-71
2022/08/19 09:32:15;;;;;;;11.00;10.00;;;27.20;99.90;;;;;;5079881;28;21002;-71
2022/08/19 09:34:41;;;;;;;11.33;9.60;;;27.00;99.90;;;;;;5079220;28;20729;-71
2022/08/19 09:37:08;;;;;;;10.17;9.23;;;26.90;99.90;;;;;;5079586;28;20853;-71
2022/08/19 09:39:34;;;;;;;10.30;9.50;;;27.30;99.90;;;;;;5079006;28;20613;-71
2022/08/19 09:42:03;;;;;;;9.50;8.60;;;27.40;99.90;;;;;;5079144;28;20621;-71
2022/08/19 09:44:29;;;;;;;10.10;9.20;;;27.50;99.90;;;;;;5076760;28;21255;-71
2022/08/19 09:46:56;;;;;;;9.17;8.50;;;27.30;99.90;;;;;;5078790;28;20566;-71
2022/08/19 09:49:22;;;;;;;22.33;9.03;;;27.50;99.90;;;;;;5078660;28;20677;-71
2022/08/19 09:51:54;;;;;;;9.47;8.73;;;27.00;99.90;;;;;;5079294;28;20669;-71
2022/08/19 09:54:21;;;;;;;8.97;8.23;;;27.00;99.90;;;;;;5077585;28;21211;-71
2022/08/19 09:56:47;;;;;;;8.93;8.13;;;27.20;99.90;;;;;;5079220;28;21117;-71
2022/08/19 09:59:14;;;;;;;9.33;8.47;;;27.20;99.90;;;;;;5079121;28;20696;-71
2022/08/19 10:01:40;;;;;;;34.97;9.67;;;27.50;99.90;;;;;;5076354;28;20574;-71
2022/08/19 10:04:10;;;;;;;8.70;8.00;;;27.80;99.90;;;;;;5076745;28;20727;-71
2022/08/19 10:06:39;;;;;;;9.20;8.40;;;28.10;99.90;;;;;;5077308;28;20579;-71
2022/08/19 10:09:07;;;;;;;8.43;7.70;;;28.10;99.90;;;;;;5077762;28;20983;-71
2022/08/19 10:11:34;;;;;;;8.40;7.80;;;28.00;99.90;;;;;;5075820;28;20602;-71
2022/08/19 10:14:02;;;;;;;7.87;7.10;;;27.90;99.90;;;;;;5075724;28;20725;-71
2022/08/19 10:16:28;;;;;;;8.60;7.87;;;28.20;99.90;;;;;;5077953;28;20679;-71
2022/08/19 10:18:55;;;;;;;9.00;8.30;;;27.80;99.90;;;;;;5076356;28;20622;-71
2022/08/19 10:21:25;;;;;;;14.43;10.07;;;27.90;99.90;;;;;;5078190;28;20631;-71
2022/08/19 10:23:54;;;;;;;10.53;9.63;;;27.80;99.90;;;;;;5075621;28;20738;-71
2022/08/19 10:26:25;;;;;;;9.07;8.40;;;27.90;99.90;;;;;;5077139;28;20743;-71
2022/08/19 10:28:51;;;;;;;10.33;9.53;;;27.90;99.90;;;;;;5076559;28;20578;-71
2022/08/19 10:31:21;;;;;;;11.10;10.20;;;27.70;99.90;;;;;;5078597;28;20582;-71
2022/08/19 10:33:48;;;;;;;9.00;8.40;;;27.40;99.90;;;;;;5077637;28;20622;-71
2022/08/19 10:36:22;;;;;;;10.13;9.30;;;27.30;99.90;;;;;;5074298;28;20683;-72
2022/08/19 10:38:53;;;;;;;9.30;8.70;;;27.70;99.90;;;;;;5073046;28;20965;-71
2022/08/19 10:41:24;;;;;;;9.27;8.57;;;28.30;99.90;;;;;;5073572;28;20577;-72
2022/08/19 10:43:54;;;;;;;8.27;7.60;;;28.20;99.90;;;;;;5073198;28;21204;-72
2022/08/19 10:46:23;;;;;;;8.77;8.17;;;28.10;99.90;;;;;;5073081;28;20676;-72
2022/08/19 10:48:50;;;;;;;8.97;8.27;;;28.10;99.90;;;;;;5073490;28;20598;-72
2022/08/19 10:54:03;;;;;;;8.87;8.07;;;27.90;99.90;;;;;;5073032;28;21212;-72
2022/08/19 10:59:16;;;;;;;8.37;7.50;;;28.10;99.90;;;;;;5072978;28;20585;-71
2022/08/19 11:01:44;;;;;;;8.60;7.90;;;28.00;99.90;;;;;;5073287;28;20613;-72
2022/08/19 11:04:13;;;;;;;8.23;7.57;;;27.60;99.90;;;;;;5072820;28;20654;-72
2022/08/19 11:06:41;;;;;;;12.07;7.60;;;27.30;99.90;;;;;;5072877;28;20621;-72
2022/08/19 11:09:08;;;;;;;8.87;8.00;;;27.40;99.90;;;;;;5073205;28;20577;-72
2022/08/19 11:11:40;;;;;;;7.77;7.17;;;28.00;99.90;;;;;;5072980;28;20625;-72
2022/08/19 11:14:13;;;;;;;9.53;6.83;;;28.40;99.90;;;;;;5072524;28;20655;-72
2022/08/19 11:16:42;;;;;;;8.20;7.60;;;28.80;99.90;;;;;;5072929;28;20622;-72
2022/08/19 11:19:10;;;;;;;7.20;6.80;;;27.70;99.90;;;;;;5073139;28;21121;-72
2022/08/19 11:21:39;;;;;;;7.30;6.70;;;27.60;99.90;;;;;;5072888;28;21020;-71
2022/08/19 11:24:13;;;;;;;7.60;7.20;;;27.80;99.90;;;;;;5073390;28;21240;-72
2022/08/19 11:26:41;;;;;;;11.17;7.00;;;27.90;99.90;;;;;;5073003;28;20582;-72
2022/08/19 11:29:13;;;;;;;6.80;6.50;;;27.70;99.90;;;;;;5072910;28;21184;-72
2022/08/19 11:31:43;;;;;;;7.50;7.10;;;27.60;99.90;;;;;;5072815;28;20618;-71
2022/08/19 11:34:15;;;;;;;8.83;7.07;;;27.50;99.90;;;;;;5073193;28;20628;-71
2022/08/19 11:36:44;;;;;;;7.20;6.70;;;27.40;99.90;;;;;;5072539;28;20687;-71
2022/08/19 11:39:14;;;;;;;7.37;6.87;;;27.60;99.90;;;;;;5072962;28;20626;-71
2022/08/19 11:41:40;;;;;;;7.73;7.23;;;28.00;99.90;;;;;;5072328;28;20695;-71
2022/08/19 11:44:07;;;;;;;8.30;7.70;;;29.00;99.90;;;;;;5072477;28;20650;-71
2022/08/19 11:46:35;;;;;;;8.67;8.07;;;29.20;99.90;;;;;;5072752;28;20621;-72
2022/08/19 11:49:03;;;;;;;7.30;6.80;;;29.50;99.90;;;;;;5072796;28;20581;-72
2022/08/19 11:51:30;;;;;;;7.93;7.37;;;30.00;99.90;;;;;;5072677;28;20615;-71
2022/08/19 11:53:59;;;;;;;7.40;6.90;;;30.50;99.90;;;;;;5073442;28;20575;-72
2022/08/19 11:56:27;;;;;;;7.57;7.07;;;31.30;99.90;;;;;;5072760;28;20611;-72
2022/08/19 11:58:54;;;;;;;7.43;6.97;;;31.40;99.90;;;;;;5073111;28;20578;-71
2022/08/19 12:01:23;;;;;;;7.00;6.57;;;32.10;99.90;;;;;;5072648;28;20581;-71
2022/08/19 12:03:52;;;;;;;6.97;6.57;;;32.30;99.90;;;;;;5072948;28;20633;-72
2022/08/19 12:06:27;;;;;;;6.83;6.40;;;32.40;99.90;;;;;;5072812;28;20570;-72
2022/08/19 12:08:54;;;;;;;7.50;7.00;;;30.60;99.90;;;;;;5072452;28;20629;-71
2022/08/19 12:11:21;;;;;;;7.07;6.47;;;30.10;99.90;;;;;;5072832;28;20734;-71
2022/08/19 12:13:48;;;;;;;5.90;5.50;;;30.20;99.90;;;;;;5072699;28;20643;-72
2022/08/19 12:16:18;;;;;;;7.83;6.47;;;29.90;99.90;;;;;;5072484;28;21072;-71
2022/08/19 12:18:46;;;;;;;7.30;6.73;;;30.30;99.90;;;;;;5072623;28;20659;-71
2022/08/19 12:21:20;;;;;;;6.60;6.20;;;30.00;99.90;;;;;;5072340;28;20684;-71
2022/08/19 12:23:49;;;;;;;6.53;6.13;;;29.80;99.90;;;;;;5071739;28;20677;-71
2022/08/19 12:26:16;;;;;;;5.93;5.63;;;29.80;99.90;;;;;;5075423;28;21160;-71
2022/08/19 12:28:47;;;;;;;6.60;6.00;;;30.30;99.90;;;;;;5076194;28;20602;-71
2022/08/19 12:31:14;;;;;;;4.90;4.70;;;31.00;99.90;;;;;;5076015;28;20590;-72
2022/08/19 12:33:42;;;;;;;4.30;4.10;;;32.20;99.90;;;;;;5075930;28;20590;-71
2022/08/19 12:36:11;;;;;;;4.77;4.53;;;32.20;99.90;;;;;;5075834;28;20984;-72
2022/08/19 12:38:38;;;;;;;5.43;5.13;;;31.50;99.90;;;;;;5075972;28;20621;-72
2022/08/19 12:41:06;;;;;;;6.23;4.37;;;31.40;99.90;;;;;;5075577;28;20645;-72
2022/08/19 12:43:34;;;;;;;4.30;4.10;;;30.70;99.90;;;;;;5075478;28;20687;-71
2022/08/19 12:46:03;;;;;;;3.97;3.77;;;30.20;99.90;;;;;;5076024;28;20575;-71
2022/08/19 12:48:31;;;;;;;3.90;3.60;;;30.90;99.90;;;;;;5075468;28;20677;-71
2022/08/19 12:50:57;;;;;;;3.93;3.73;;;32.10;99.90;;;;;;5075588;28;20570;-72
2022/08/19 12:53:24;;;;;;;4.97;4.57;;;32.50;99.90;;;;;;5075612;28;20614;-72
2022/08/19 12:55:59;;;;;;;4.70;4.40;;;32.80;99.90;;;;;;5076131;28;20623;-73
2022/08/19 12:58:26;;;;;;;4.20;4.00;;;32.70;99.90;;;;;;5076548;28;21067;-73
2022/08/19 13:00:53;;;;;;;4.90;4.70;;;31.20;99.90;;;;;;5075780;28;20570;-74
2022/08/19 13:03:22;;;;;;;5.93;4.77;;;30.30;99.90;;;;;;5075304;28;20570;-75